Latest Coastal Weather Observations for Samuel Hill

IDQ60701

Issued at 12:42 am EST Saturday 20 April 2024 (issued every 10 minutes, with the page automatically refreshed every 10 minutes)

About coastal observations | Map of coastal stations | Coastal observations for QLD | Marine services | Other Formats
Station Details ID: 033308 Name: SAMUEL HILL AERO Lat: -22.74 Lon: 150.66 Height: 31.0 m
Data from the previous 72 hours. | See also: Recent months at Samuel Hill
Date/Time
EST
Wind Sea
Height
m
Swell Vis
km
Cloud Weather Temp
°C
Press
MSL
hPa
Rain since
9am
mm
Dir  Spd
kts
Gust
kts
Height
m
Period
s
Dir
20/12:30am CALM 0 0 - - - - 10 Partly cloudy - 19.7 1013.5 0.2
20/12:00am CALM 0 0 - - - - 10 Partly cloudy - 19.9 1014.1 0.2
 
Date/Time
EST
Wind Sea
Height
m
Swell Vis
km
Cloud Weather Temp
°C
Press
MSL
hPa
Rain since
9am
mm
Dir  Spd
kts
Gust
kts
Height
m
Period
s
Dir
19/11:30pm CALM 0 0 - - - - 10 Partly cloudy - 20.0 1014.4 0.2
19/11:00pm CALM 0 0 - - - - 10 Partly cloudy - 20.0 1014.5 0.2
19/10:30pm CALM 0 0 - - - - 10 - - 20.2 1014.5 0.2
19/10:00pm CALM 0 0 - - - - 10 Partly cloudy - 20.3 1014.6 0.2
19/09:30pm CALM 0 0 - - - - 10 - - 20.6 1014.5 0.2
19/09:00pm CALM 0 0 - - - - 10 - - 20.7 1014.6 0.2
19/08:30pm CALM 0 0 - - - - 10 - - 21.4 1014.6 0.2
19/08:00pm E 2 3 - - - - 10 - - 21.4 1014.3 0.2
19/07:30pm SE 2 5 - - - - 10 - - 22.3 1014.0 0.2
19/07:00pm CALM 0 0 - - - - 10 - - 22.1 1013.7 0.2
19/06:30pm CALM 0 0 - - - - 10 - - 22.8 1013.3 0.2
19/06:00pm NNE 2 3 - - - - 10 - - 23.5 1013.0 0.2
19/05:30pm NE 3 4 - - - - 10 - - 24.4 1012.6 0.2
19/05:00pm NE 4 5 - - - - 10 - - 25.1 1012.3 0.2
19/04:30pm NNE 3 5 - - - - 10 - - 25.8 1012.3 0.2
19/04:00pm NE 5 7 - - - - 10 - - 26.6 1012.0 0.2
19/03:30pm NNE 6 8 - - - - 10 - - 26.9 1012.0 0.2
19/03:00pm NE 7 9 - - - - 10 - - 27.4 1011.8 0.2
19/02:30pm NNE 6 8 - - - - 10 - - 28.0 1011.8 0.2
19/02:00pm NNE 6 9 - - - - 10 - - 28.0 1012.1 0.2
19/01:30pm NE 7 10 - - - - 10 - - 28.6 1012.3 0.2
19/01:00pm NE 7 10 - - - - 10 - - 28.3 1012.6 0.2
19/12:30pm NE 7 12 - - - - 10 Partly cloudy - 28.6 1013.1 0.0
19/12:00pm NE 5 8 - - - - 10 Mostly clear - 28.0 1013.3 0.0
19/11:30am ENE 6 8 - - - - 10 Partly cloudy - 27.0 1013.7 0.0
19/11:00am ENE 5 8 - - - - 10 Partly cloudy - 26.8 1014.0 0.0
19/10:30am S 5 9 - - - - 10 Partly cloudy - 26.1 1014.4 0.0
19/10:02am SSW 4 6 - - - - 10 Partly cloudy - 26.7 1014.5 0.0
19/10:00am S 4 6 - - - - 10 Partly cloudy - 26.6 1014.5 0.0
19/09:51am ENE 4 6 - - - - 10 Partly cloudy - 26.2 1014.5 0.0
19/09:49am NE 4 7 - - - - 10 Partly cloudy - 26.1 1014.6 0.0
19/09:30am NE 3 5 - - - - 10 Partly cloudy - 25.5 1014.7 0.0
19/09:17am NNE 5 6 - - - - 10 Partly cloudy - 24.8 1014.7 0.0
19/09:14am NNE 4 6 - - - - 10 Partly cloudy - 24.5 1014.7 0.0
19/09:00am NE 2 4 - - - - 10 Cloudy - 23.7 1014.7 0.0
19/08:46am ENE 4 6 - - - - 10 Cloudy - 23.1 1014.5 0.0
19/08:30am ENE 4 5 - - - - 10 Cloudy - 22.8 1014.3 0.0
19/08:20am E 3 5 - - - - 10 Cloudy - 22.2 1014.3 0.0
19/08:00am ENE 3 4 - - - - 10 Cloudy - 21.4 1014.2 0.0
19/07:30am CALM 0 0 - - - - 10 Partly cloudy - 20.4 1014.2 0.0
19/07:13am CALM 0 0 - - - - 10 Partly cloudy - 20.1 1014.1 0.0
19/07:00am CALM 0 0 - - - - 10 - - 19.8 1013.9 0.0
19/06:30am SSW 3 5 - - - - 10 - - 19.3 1013.5 0.0
19/06:23am SW 2 4 - - - - 10 Partly cloudy - 19.2 1013.4 0.0
19/06:21am SW 1 4 - - - - 10 Partly cloudy - 19.2 1013.3 0.0
19/06:09am CALM 0 0 - - - - 1 Partly cloudy - 19.3 1013.2 0.0
19/06:00am CALM 0 0 - - - - 0.2 Mostly cloudy - 19.3 1013.2 0.0
19/05:30am W 3 5 - - - - 0.4 Cloudy - 19.4 1012.9 0.0
19/05:00am CALM 0 0 - - - - 0.2 Cloudy - 19.6 1012.9 0.0
19/04:47am CALM 0 0 - - - - 0.8 Partly cloudy - 19.1 1012.7 0.0
19/04:32am CALM 0 0 - - - - 5 Partly cloudy - 19.0 1012.6 0.0
19/04:30am CALM 0 0 - - - - 3 Partly cloudy - 19.0 1012.6 0.0
19/04:16am CALM 0 0 - - - - 7 Partly cloudy - 18.9 1012.5 0.0
19/04:00am CALM 0 0 - - - - 10 - - 18.8 1012.4 0.0
19/03:30am CALM 0 0 - - - - 10 - - 19.1 1012.3 0.0
19/03:14am CALM 0 0 - - - - 10 Partly cloudy - 19.2 1012.2 0.0
19/03:10am CALM 0 0 - - - - 10 Partly cloudy - 19.3 1012.2 0.0
19/03:00am CALM 0 0 - - - - 2 Partly cloudy - 19.2 1012.3 0.0
19/02:50am CALM 0 0 - - - - 1 Partly cloudy - 19.1 1012.3 0.0
19/02:41am CALM 0 0 - - - - 0.9 Cloudy - 19.1 1012.4 0.0
19/02:30am CALM 0 0 - - - - 2 Cloudy - 19.4 1012.5 0.0
19/02:23am CALM 0 0 - - - - 1 Cloudy - 19.6 1012.4 0.0
19/02:00am CALM 0 0 - - - - 0.8 Cloudy - 19.5 1012.5 0.0
19/01:59am CALM 0 0 - - - - 0.9 Cloudy - 19.5 1012.5 0.0
19/01:44am CALM 0 0 - - - - 6 Cloudy - 19.6 1012.9 0.0
19/01:41am CALM 0 0 - - - - 10 Cloudy - 19.6 1012.9 0.0
19/01:30am CALM 0 0 - - - - 5 Partly cloudy - 19.6 1013.1 0.0
19/01:00am CALM 0 0 - - - - 2 Partly cloudy - 19.8 1013.2 0.0
19/12:51am CALM 0 0 - - - - 1 Partly cloudy - 20.2 1013.2 0.0
19/12:41am CALM 0 0 - - - - 0.9 Cloudy - 20.2 1013.4 0.0
19/12:36am CALM 0 0 - - - - 4 Cloudy - 20.1 1013.4 0.0
19/12:30am CALM 0 0 - - - - 10 Partly cloudy - 20.0 1013.5 0.0
19/12:22am CALM 0 0 - - - - 10 Partly cloudy - 19.9 1013.5 0.0
19/12:00am CALM 0 0 - - - - 10 Mostly clear - 20.1 1013.8 0.0
 
Date/Time
EST
Wind Sea
Height
m
Swell Vis
km
Cloud Weather Temp
°C
Press
MSL
hPa
Rain since
9am
mm
Dir  Spd
kts
Gust
kts
Height
m
Period
s
Dir
18/11:30pm CALM 0 0 - - - - - - - 20.6 1014.3 0.0
18/11:00pm CALM 0 0 - - - - - Partly cloudy - 20.4 1014.5 0.0
18/10:30pm CALM 0 0 - - - - - Partly cloudy - 21.1 1014.8 0.0
18/10:00pm CALM 0 0 - - - - - - - 20.8 1014.8 0.0
18/09:30pm CALM 0 0 - - - - 10 - - 21.3 1015.0 0.0
18/09:00pm CALM 0 0 - - - - 10 - - 21.6 1014.8 0.0
18/08:30pm CALM 0 0 - - - - 10 - - 21.6 1014.8 0.0
18/08:00pm CALM 0 0 - - - - 10 - - 22.1 1014.8 0.0
18/07:30pm CALM 0 0 - - - - 10 Partly cloudy - 22.9 1014.7 0.0
18/07:00pm NE 3 4 - - - - 10 Cloudy - 23.2 1014.6 0.0
18/06:30pm ESE 3 4 - - - - 10 Partly cloudy - 23.5 1014.4 0.0
18/06:00pm ENE 3 3 - - - - 10 Partly cloudy - 23.8 1014.2 0.0
18/05:30pm NE 3 4 - - - - 10 - - 24.3 1013.8 0.0
18/05:00pm NNE 5 7 - - - - 10 Partly cloudy - 24.8 1013.8 0.0
18/04:30pm NNE 6 9 - - - - 10 Cloudy - 25.3 1013.5 0.0
18/04:00pm NE 6 10 - - - - 10 Partly cloudy - 25.5 1013.6 0.0
18/03:30pm NNE 7 11 - - - - 10 Partly cloudy - 25.6 1013.7 0.0
18/03:00pm NNE 8 13 - - - - 10 Cloudy - 26.2 1013.9 0.0
18/02:30pm NE 9 13 - - - - 10 Partly cloudy - 26.0 1013.9 0.0
18/02:00pm NNE 9 13 - - - - 10 Partly cloudy - 26.3 1014.0 0.0
18/01:30pm NNE 9 14 - - - - 10 Partly cloudy - 26.2 1014.3 0.0
18/01:00pm NE 9 13 - - - - 10 Partly cloudy - 27.3 1014.5 0.0
18/12:30pm NE 8 12 - - - - 10 Partly cloudy - 27.0 1014.8 0.0
18/12:00pm NNE 7 11 - - - - 10 Cloudy - 26.6 1015.3 0.0
18/11:30am NNE 8 11 - - - - 10 Partly cloudy - 26.3 1015.5 0.0
18/11:00am NE 7 12 - - - - 10 Partly cloudy - 26.5 1015.8 0.0
18/10:30am NNE 8 11 - - - - 10 Partly cloudy - 26.0 1016.1 0.0
18/10:00am NE 7 10 - - - - 10 Partly cloudy - 26.2 1016.4 0.0
18/09:30am NNE 7 11 - - - - 10 Partly cloudy - 26.0 1016.3 0.0
18/09:00am NNE 5 7 - - - - 10 Cloudy - 25.3 1016.6 25.0
18/08:30am NE 4 6 - - - - 10 - - 24.4 1016.6 25.0
18/08:00am E 4 5 - - - - 10 - - 23.4 1016.6 25.0
18/07:30am NE 4 6 - - - - 10 Partly cloudy - 22.8 1016.3 25.0
18/07:00am SE 3 5 - - - - 10 Partly cloudy - 21.4 1016.1 25.0
18/06:30am CALM 0 3 - - - - 10 - - 20.7 1015.8 25.0
18/06:00am CALM 0 0 - - - - 10 Mostly clear - 20.4 1015.7 25.0
18/05:30am CALM 0 0 - - - - 10 Partly cloudy - 20.5 1015.6 25.0
18/05:00am CALM 0 0 - - - - 10 Partly cloudy - 20.8 1015.3 25.0
18/04:30am ESE 4 5 - - - - 10 - - 21.1 1015.2 25.0
18/04:00am E 2 4 - - - - 10 Partly cloudy - 21.3 1015.4 25.0
18/03:30am NE 4 5 - - - - 10 - - 21.4 1015.5 25.0
18/03:00am NE 3 5 - - - - 10 Cloudy - 21.5 1015.7 25.0
18/02:30am NE 4 5 - - - - 10 Partly cloudy - 21.7 1016.1 25.0
18/02:19am NE 4 5 - - - - 10 Partly cloudy - 21.8 1016.3 25.0
18/02:04am ESE 4 6 - - - - 10 Partly cloudy - 21.8 1016.5 25.0
18/02:01am SSE 4 6 - - - - 10 Partly cloudy - 21.8 1016.5 25.0
18/02:00am SE 4 6 - - - - 10 Partly cloudy - 21.8 1016.5 25.0
18/01:44am NE 3 5 - - - - 10 Partly cloudy - 21.9 1016.6 25.0
18/01:30am E 4 5 - - - - 10 Partly cloudy - 21.8 1016.8 24.8
18/01:00am SSE 3 6 - - - - 10 Partly cloudy - 21.8 1017.1 24.8
18/12:30am S 5 6 - - - - 10 Partly cloudy - 21.7 1017.4 24.8
18/12:00am E 4 5 - - - - 10 Partly cloudy - 21.5 1017.6 24.8
 
Date/Time
EST
Wind Sea
Height
m
Swell Vis
km
Cloud Weather Temp
°C
Press
MSL
hPa
Rain since
9am
mm
Dir  Spd
kts
Gust
kts
Height
m
Period
s
Dir
17/11:30pm SSW 1 4 - - - - 10 Partly cloudy - 21.8 1017.9 24.8
17/11:13pm S 4 5 - - - - 10 Partly cloudy - 22.0 1017.9 24.8
17/11:00pm ENE 5 6 - - - - 4 Partly cloudy - 22.3 1018.0 24.8
17/10:49pm NNE 4 7 - - - - 7 Partly cloudy - 22.2 1018.1 23.4
17/10:48pm NNE 4 7 - - - - 9 Partly cloudy - 22.2 1018.1 23.0
17/10:30pm NNE 3 6 - - - - 5 Partly cloudy - 21.9 1018.2 22.2
17/10:20pm NNE 4 6 - - - - 7 Partly cloudy - 21.8 1018.4 21.2
17/10:00pm NNE 5 7 - - - - 10 Cloudy - 21.9 1018.5 20.6
17/09:30pm NNE 7 13 - - - - 10 Partly cloudy - 22.1 1018.6 20.6
17/09:00pm ESE 4 5 - - - - 10 Cloudy Rain 22.1 1018.5 20.6
17/08:35pm E 5 7 - - - - 10 Partly cloudy - 22.2 1018.5 20.6
17/08:30pm E 5 7 - - - - 10 Partly cloudy - 22.2 1018.4 20.6
17/08:13pm NE 2 6 - - - - 6 Partly cloudy - 22.1 1018.5 19.2
17/08:00pm NNE 1 5 - - - - 10 Partly cloudy - 22.0 1018.1 17.8
17/07:30pm NNE 4 6 - - - - 10 Partly cloudy - 21.8 1017.8 17.8
17/07:00pm NE 4 5 - - - - 10 Partly cloudy - 21.5 1017.8 17.8
17/06:30pm ESE 4 6 - - - - 10 Partly cloudy - 21.5 1017.4 17.8
17/06:00pm NNE 3 5 - - - - 10 Mostly cloudy Rain 21.5 1017.3 17.8
17/05:34pm NE 7 9 - - - - 9 Partly cloudy - 21.3 1017.4 17.8
17/05:30pm NE 7 10 - - - - 9 Partly cloudy - 21.3 1017.5 17.8
17/05:00pm NE 8 13 - - - - 4 Partly cloudy - 22.4 1017.6 17.4
17/04:45pm NE 7 12 - - - - 7 Partly cloudy - 22.5 1017.4 16.4
17/04:33pm NE 7 11 - - - - 10 Partly cloudy - 22.6 1017.3 16.2
17/04:30pm NE 7 11 - - - - 10 Partly cloudy - 22.6 1017.3 16.2
17/04:18pm NNE 6 10 - - - - 10 Partly cloudy - 22.8 1017.1 16.2
17/04:08pm NNE 6 11 - - - - 10 Partly cloudy - 22.9 1017.2 16.2
17/04:06pm NNE 6 11 - - - - 10 Partly cloudy - 22.9 1017.1 16.2
17/04:00pm NNE 6 8 - - - - 10 Partly cloudy - 22.9 1017.1 16.2
17/03:45pm NE 6 9 - - - - 5 Partly cloudy - 23.3 1017.1 14.8
17/03:44pm NE 6 9 - - - - 6 Partly cloudy - 23.6 1017.1 14.6
17/03:30pm NNE 8 12 - - - - 10 Partly cloudy - 24.1 1016.9 14.4
17/03:00pm NE 8 13 - - - - 10 Cloudy Showers 23.9 1016.8 14.4
17/02:52pm NNE 9 14 - - - - 10 Partly cloudy - 23.8 1016.6 14.4
17/02:30pm NNE 9 13 - - - - 10 Partly cloudy - 24.5 1016.5 14.4
17/02:00pm NNE 6 9 - - - - 10 Partly cloudy - 23.7 1016.7 14.4
17/01:30pm NNE 6 8 - - - - 10 Partly cloudy - 25.2 1016.7 14.4
17/01:00pm NNE 5 7 - - - - 10 Partly cloudy - 24.3 1017.1 14.4
17/12:56pm NNE 5 7 - - - - 10 Partly cloudy - 23.7 1017.2 14.4
17/12:46pm NNE 6 8 - - - - 7 Partly cloudy - 23.4 1017.2 14.4
17/12:42pm NNE 7 11 - - - - 7 Partly cloudy - 23.5 1017.3 14.4
17/12:40pm NNE 6 11 - - - - 9 Partly cloudy - 23.4 1017.3 14.4
17/12:30pm NNE 5 8 - - - - 7 Partly cloudy - 23.2 1017.5 14.4
17/12:07pm E 6 10 - - - - 3 Partly cloudy - 22.8 1018.0 13.2
17/12:06pm E 7 10 - - - - 3 Partly cloudy - 22.8 1018.1 13.2
17/12:00pm NE 5 9 - - - - 3 Cloudy Showers 23.1 1018.2 12.8
17/11:52am NNE 4 7 - - - - 10 Partly cloudy - 23.4 1018.3 11.0
17/11:31am N 1 3 - - - - 2 Partly cloudy - 22.6 1018.8 9.4
17/11:30am N 1 3 - - - - 2 Partly cloudy - 22.6 1018.8 9.0
17/11:00am WSW 1 4 - - - - 2 Partly cloudy - 22.5 1019.3 3.6
17/10:38am SSW 1 3 - - - - 3 Partly cloudy - 22.5 1019.7 1.4
17/10:30am S 3 5 - - - - 2 Partly cloudy - 22.3 1019.8 1.0
17/10:14am E 6 9 - - - - 7 Partly cloudy - 22.7 1019.9 0.0
17/10:13am ESE 6 9 - - - - 8 Partly cloudy - 22.6 1019.9 0.0
17/10:00am SSE 6 10 - - - - 8 Partly cloudy - 22.6 1020.0 0.0
17/09:33am SE 7 9 - - - - 10 Partly cloudy - 22.5 1020.0 0.0
17/09:30am SSE 7 9 - - - - 10 Partly cloudy - 22.3 1020.0 0.0
17/09:00am E 7 10 - - - - 10 Cloudy Recent precip. 22.5 1019.9 0.6
17/08:40am SE 9 13 - - - - 10 Partly cloudy - 22.2 1019.6 0.6
17/08:30am ENE 8 12 - - - - 10 Partly cloudy - 21.8 1019.6 0.6
17/08:00am ENE 6 10 - - - - 10 Partly cloudy - 21.9 1019.4 0.6
17/07:58am E 6 10 - - - - 10 Partly cloudy - 21.7 1019.4 0.6
17/07:30am SSE 3 5 - - - - 10 Cloudy - 21.5 1018.9 0.6
17/07:00am SSE 4 5 - - - - 10 Partly cloudy - 21.6 1018.7 0.6
17/06:30am NNE 4 6 - - - - 10 Partly cloudy - 21.5 1018.7 0.6
17/06:00am NNE 3 4 - - - - 10 Cloudy Showers 21.6 1018.6 0.6
17/05:53am NE 3 4 - - - - 10 Partly cloudy - 21.6 1018.5 0.6
17/05:38am ENE 3 4 - - - - 5 Partly cloudy - 21.7 1018.3 0.6
17/05:34am ENE 3 4 - - - - 7 Partly cloudy - 21.7 1018.3 0.6
17/05:31am ENE 3 4 - - - - 10 Partly cloudy - 21.7 1018.3 0.4
17/05:30am NE 3 4 - - - - 10 Partly cloudy - 21.7 1018.3 0.4
17/05:10am NE 3 5 - - - - 7 Partly cloudy - 21.7 1018.3 0.4
17/05:07am NE 3 5 - - - - 10 Partly cloudy - 21.7 1018.3 0.4
17/05:00am NNE 3 5 - - - - 10 Partly cloudy - 21.7 1018.3 0.4
17/04:30am CALM 0 3 - - - - 10 Partly cloudy - 21.8 1018.1 0.4
17/04:00am ESE 5 6 - - - - 10 Partly cloudy - 21.9 1018.1 0.4
17/03:30am N 2 4 - - - - 10 Partly cloudy - 22.1 1018.3 0.4
17/03:08am NNE 4 5 - - - - 10 Partly cloudy - 22.2 1018.1 0.4
17/03:00am NE 4 5 - - - - 10 Cloudy Showers 22.3 1018.2 0.4
17/02:39am NE 5 7 - - - - 10 Partly cloudy - 22.3 1018.2 0.4
17/02:30am NE 3 6 - - - - 8 Partly cloudy - 22.1 1018.2 0.4
17/02:28am NE 3 6 - - - - 7 Partly cloudy - 22.0 1018.2 0.4
17/02:22am NNE 2 6 - - - - 10 Partly cloudy - 21.9 1018.2 0.2
17/02:10am NE 3 4 - - - - 10 Partly cloudy - 21.9 1018.2 0.2
17/02:00am NNE 2 4 - - - - 7 Partly cloudy - 21.8 1018.3 0.2
17/01:51am NNE 4 5 - - - - 7 Partly cloudy - 21.5 1018.3 0.0
17/01:30am NE 3 4 - - - - 10 Partly cloudy - 21.6 1018.4 0.0
17/01:00am E 4 5 - - - - 10 - - 21.4 1018.6 0.0

Other formats

Comma delimited format used in spreadsheet applications
http://www.bom.gov.au/fwo/IDQ60701/IDQ60701.94370.axf

JavaScript Object Notation format (JSON) in row-major order
http://www.bom.gov.au/fwo/IDQ60701/IDQ60701.94370.json

Data quality

Most of these data are generated automatically and are frequently updated. Quality checks on data are not normally performed. It is possible for incorrect values to appear. Refer to information at About Latest Weather Observations and please check the disclaimer before using these data.